createdAt,value
2022-10-11T00:01:15.629Z,2.77
2022-10-11T00:03:45.436Z,2.90
2022-10-11T00:06:15.262Z,2.87
2022-10-11T00:08:45.151Z,2.73
2022-10-11T00:11:15.011Z,2.40
2022-10-11T00:13:47.726Z,2.30
2022-10-11T00:16:20.023Z,2.50
2022-10-11T00:18:52.736Z,2.90
2022-10-11T00:21:25.509Z,2.70
2022-10-11T00:23:55.503Z,2.30
2022-10-11T00:26:30.160Z,2.57
2022-10-11T00:29:02.670Z,2.73
2022-10-11T00:31:35.823Z,2.83
2022-10-11T00:34:08.412Z,2.33
2022-10-11T00:36:38.320Z,2.30
2022-10-11T00:39:08.774Z,2.43
2022-10-11T00:41:39.000Z,2.67
2022-10-11T00:44:23.278Z,2.93
2022-10-11T00:46:56.347Z,2.43
2022-10-11T00:49:35.611Z,3.03
2022-10-11T00:52:09.996Z,2.90
2022-10-11T00:54:44.604Z,2.80
2022-10-11T00:57:19.000Z,2.67
2022-10-11T00:59:55.171Z,2.60
2022-10-11T01:02:26.553Z,3.07
2022-10-11T01:05:18.031Z,2.30
2022-10-11T01:07:48.302Z,2.57
2022-10-11T01:10:18.369Z,2.30
2022-10-11T01:13:04.573Z,2.23
2022-10-11T01:15:43.208Z,2.43
2022-10-11T01:18:18.053Z,2.10
2022-10-11T01:20:58.189Z,1.93
2022-10-11T01:23:54.411Z,2.53
2022-10-11T01:27:08.716Z,2.20
2022-10-11T01:29:49.519Z,2.43
2022-10-11T01:32:27.334Z,2.77
2022-10-11T01:35:04.875Z,2.70
2022-10-11T01:37:38.899Z,2.70
2022-10-11T01:40:12.533Z,3.00
2022-10-11T01:42:44.539Z,2.43
2022-10-11T01:45:19.061Z,2.50
2022-10-11T01:48:04.157Z,3.03
2022-10-11T01:50:39.704Z,2.83
2022-10-11T01:53:25.394Z,3.37
2022-10-11T01:56:00.094Z,2.53
2022-10-11T01:58:39.355Z,2.63
2022-10-11T02:01:18.515Z,2.97
2022-10-11T02:03:58.123Z,3.00
2022-10-11T02:06:35.825Z,2.47
2022-10-11T02:09:13.907Z,2.80
2022-10-11T02:11:44.713Z,2.80
2022-10-11T02:14:19.380Z,2.63
2022-10-11T02:16:54.049Z,2.30
2022-10-11T02:19:34.667Z,2.80
2022-10-11T02:22:08.955Z,2.40
2022-10-11T02:24:42.886Z,3.00
2022-10-11T02:27:14.304Z,4.10
2022-10-11T02:29:48.160Z,2.50
2022-10-11T02:32:20.204Z,2.70
2022-10-11T02:34:56.679Z,2.90
2022-10-11T02:37:33.882Z,2.40
2022-10-11T02:40:13.559Z,3.00
2022-10-11T02:42:47.961Z,2.40
2022-10-11T02:45:22.089Z,2.47
2022-10-11T02:47:52.598Z,2.47
2022-10-11T02:50:25.735Z,2.60
2022-10-11T02:52:55.530Z,2.40
2022-10-11T02:55:25.412Z,3.07
2022-10-11T02:57:55.580Z,3.20
2022-10-11T03:00:25.732Z,3.27
2022-10-11T03:02:55.456Z,3.00
2022-10-11T03:05:27.884Z,3.43
2022-10-11T03:07:57.726Z,2.80
2022-10-11T03:10:28.430Z,2.53
2022-10-11T03:12:58.217Z,3.37
2022-10-11T03:15:28.110Z,9.83
2022-10-11T03:17:58.127Z,8.60
2022-10-11T03:20:30.656Z,7.83
2022-10-11T03:23:00.436Z,3.97
2022-10-11T03:25:33.512Z,3.70
2022-10-11T03:28:03.265Z,3.27
2022-10-11T03:30:33.301Z,3.53
2022-10-11T03:33:03.450Z,3.20
2022-10-11T03:35:36.024Z,3.37
2022-10-11T03:38:06.393Z,3.57
2022-10-11T03:40:37.504Z,3.07
2022-10-11T03:43:07.322Z,3.30
2022-10-11T03:45:37.172Z,3.13
2022-10-11T03:48:07.410Z,3.10
2022-10-11T03:50:40.131Z,3.13
2022-10-11T03:53:12.345Z,3.57
2022-10-11T03:55:42.976Z,2.90
2022-10-11T03:58:12.749Z,3.20
2022-10-11T04:00:42.633Z,3.53
2022-10-11T04:03:12.406Z,3.17
2022-10-11T04:05:44.860Z,2.70
2022-10-11T04:08:14.634Z,3.63
2022-10-11T04:10:44.716Z,3.10
2022-10-11T04:13:15.099Z,3.17
2022-10-11T04:15:44.981Z,3.40
2022-10-11T04:18:14.837Z,3.73
2022-10-11T04:20:47.476Z,3.80
2022-10-11T04:23:17.258Z,3.30
2022-10-11T04:25:48.387Z,3.17
2022-10-11T04:28:18.277Z,10.80
2022-10-11T04:30:48.115Z,6.57
2022-10-11T04:33:17.941Z,5.93
2022-10-11T04:35:50.367Z,4.07
2022-10-11T04:38:20.174Z,4.00
2022-10-11T04:40:49.963Z,3.70
2022-10-11T04:43:20.700Z,3.53
2022-10-11T04:45:55.252Z,3.27
2022-10-11T04:48:25.334Z,3.90
2022-10-11T04:50:58.025Z,3.33
2022-10-11T04:53:27.991Z,3.47
2022-10-11T04:56:02.136Z,14.67
2022-10-11T04:58:33.150Z,43.43
2022-10-11T05:01:03.368Z,19.57
2022-10-11T05:03:33.329Z,5.20
2022-10-11T05:06:07.490Z,6.90
2022-10-11T05:08:37.436Z,6.23
2022-10-11T05:11:09.228Z,4.77
2022-10-11T05:13:39.469Z,4.77
2022-10-11T05:16:11.365Z,5.20
2022-10-11T05:18:42.179Z,5.60
2022-10-11T05:21:19.774Z,5.80
2022-10-11T05:23:51.582Z,5.10
2022-10-11T05:26:22.353Z,5.30
2022-10-11T05:28:52.493Z,6.10
2022-10-11T05:31:22.525Z,4.67
2022-10-11T05:33:52.285Z,4.80
2022-10-11T05:36:24.846Z,26.20
2022-10-11T05:38:54.595Z,38.73
2022-10-11T05:41:24.680Z,7.90
2022-10-11T05:43:54.431Z,5.60
2022-10-11T05:46:26.908Z,5.30
2022-10-11T05:48:56.723Z,4.90
2022-10-11T05:51:29.195Z,4.73
2022-10-11T05:53:59.003Z,4.27
2022-10-11T05:56:29.556Z,4.73
2022-10-11T05:59:02.363Z,4.77
2022-10-11T06:01:32.739Z,4.93
2022-10-11T06:04:02.646Z,4.93
2022-10-11T06:06:35.133Z,5.03
2022-10-11T06:09:07.436Z,6.20
2022-10-11T06:11:37.569Z,5.47
2022-10-11T06:14:08.295Z,4.30
2022-10-11T06:16:38.242Z,5.27
2022-10-11T06:19:08.132Z,51.13
2022-10-11T06:21:40.542Z,15.73
2022-10-11T06:24:10.785Z,5.30
2022-10-11T06:26:40.947Z,5.40
2022-10-11T06:29:11.131Z,4.73
2022-10-11T06:31:40.934Z,4.60
2022-10-11T06:34:10.672Z,4.73
2022-10-11T06:36:43.083Z,4.90
2022-10-11T06:39:12.852Z,4.33
2022-10-11T06:41:42.691Z,4.43
2022-10-11T06:44:14.452Z,4.00
2022-10-11T06:46:44.418Z,4.63
2022-10-11T06:49:15.533Z,5.97
2022-10-11T06:51:49.577Z,5.43
2022-10-11T06:54:19.334Z,5.57
2022-10-11T06:56:49.095Z,5.10
2022-10-11T06:59:18.928Z,5.17
2022-10-11T07:01:48.851Z,4.63
2022-10-11T07:04:18.694Z,5.43
2022-10-11T07:06:53.387Z,4.60
2022-10-11T07:09:23.237Z,5.40
2022-10-11T07:11:52.991Z,4.60
2022-10-11T07:14:22.772Z,4.80
2022-10-11T07:16:52.510Z,5.13
2022-10-11T07:19:22.432Z,5.10
2022-10-11T07:21:54.876Z,4.27
2022-10-11T07:24:24.800Z,4.50
2022-10-11T07:26:54.608Z,4.27
2022-10-11T07:29:24.519Z,4.63
2022-10-11T07:31:54.372Z,4.97
2022-10-11T07:34:24.363Z,4.20
2022-10-11T07:36:56.716Z,4.53
2022-10-11T07:39:26.529Z,4.70
2022-10-11T07:41:56.257Z,4.50
2022-10-11T07:44:25.985Z,4.87
2022-10-11T07:46:55.762Z,5.07
2022-10-11T07:49:25.575Z,5.07
2022-10-11T07:51:57.866Z,5.40
2022-10-11T07:54:27.633Z,6.07
2022-10-11T07:56:57.451Z,5.30
2022-10-11T07:59:27.248Z,4.97
2022-10-11T08:01:57.071Z,4.30
2022-10-11T08:04:26.928Z,4.73
2022-10-11T08:06:59.269Z,5.43
2022-10-11T08:09:29.525Z,5.30
2022-10-11T08:11:59.505Z,4.63
2022-10-11T08:14:29.213Z,5.20
2022-10-11T08:16:58.973Z,4.33
2022-10-11T08:19:28.751Z,4.90
2022-10-11T08:22:01.098Z,5.17
2022-10-11T08:24:33.527Z,4.53
2022-10-11T08:27:17.617Z,4.18
2022-10-11T08:29:57.689Z,4.30
2022-10-11T08:32:40.465Z,4.00
2022-10-11T08:35:20.601Z,4.20
2022-10-11T08:38:03.309Z,4.67
2022-10-11T08:40:49.527Z,4.03
2022-10-11T08:43:38.844Z,4.03
2022-10-11T08:46:24.470Z,4.03
2022-10-11T08:49:05.262Z,3.67
2022-10-11T08:51:48.941Z,4.32
2022-10-11T08:54:42.843Z,3.70
2022-10-11T08:57:25.124Z,4.60
2022-10-11T09:00:00.428Z,3.30
2022-10-11T09:03:06.946Z,3.13
2022-10-11T09:05:37.969Z,3.30
2022-10-11T09:08:24.166Z,3.22
2022-10-11T09:11:14.019Z,3.33
2022-10-11T09:14:26.628Z,3.20
2022-10-11T09:17:14.624Z,2.80
2022-10-11T09:20:10.719Z,2.75
2022-10-11T09:22:59.238Z,2.90
2022-10-11T09:25:50.352Z,2.75
2022-10-11T09:28:31.087Z,2.83
2022-10-11T09:31:01.712Z,3.17
2022-10-11T09:33:36.360Z,2.83
2022-10-11T09:36:19.284Z,3.05
2022-10-11T09:38:54.539Z,3.95
2022-10-11T09:41:32.103Z,2.92
2022-10-11T09:44:05.123Z,2.78
2022-10-11T09:46:39.303Z,2.90
2022-10-11T09:49:14.116Z,2.90
2022-10-11T09:51:47.664Z,2.92
2022-10-11T09:54:17.512Z,2.25
2022-10-11T09:56:48.924Z,2.38
2022-10-11T09:59:29.564Z,2.63
2022-10-11T10:02:24.683Z,2.50
2022-10-11T10:05:06.373Z,2.80
2022-10-11T10:07:38.071Z,2.15
2022-10-11T10:10:32.305Z,2.45
2022-10-11T10:13:04.649Z,2.78
2022-10-11T10:15:38.621Z,2.40
2022-10-11T10:18:10.594Z,3.03
2022-10-11T10:20:41.064Z,3.47
2022-10-11T10:23:13.798Z,2.20
2022-10-11T10:25:43.875Z,2.58
2022-10-11T10:28:24.137Z,2.88
2022-10-11T10:30:59.969Z,2.22
2022-10-11T10:33:34.108Z,1.80
2022-10-11T10:36:10.124Z,2.13
2022-10-11T10:38:48.647Z,2.20
2022-10-11T10:41:22.509Z,2.63
2022-10-11T10:43:55.560Z,2.72
2022-10-11T10:46:46.064Z,2.20
2022-10-11T10:49:48.388Z,2.53
2022-10-11T10:52:35.844Z,2.30
2022-10-11T10:55:16.883Z,2.65
2022-10-11T10:57:59.736Z,3.03
2022-10-11T11:00:36.905Z,2.80
2022-10-11T11:03:12.736Z,2.70
2022-10-11T11:05:50.527Z,2.53
2022-10-11T11:08:34.690Z,2.75
2022-10-11T11:11:11.151Z,2.47
2022-10-11T11:13:47.872Z,2.25
2022-10-11T11:16:26.449Z,2.00
2022-10-11T11:19:09.129Z,2.05
2022-10-11T11:21:50.390Z,2.72
2022-10-11T11:24:32.130Z,1.90
2022-10-11T11:27:09.177Z,2.70
2022-10-11T11:29:55.322Z,2.63
2022-10-11T11:32:37.146Z,2.13
2022-10-11T11:35:14.974Z,2.10
2022-10-11T11:37:47.719Z,2.25
2022-10-11T11:40:20.685Z,1.98
2022-10-11T11:42:53.754Z,2.20
2022-10-11T11:45:27.640Z,2.33
2022-10-11T11:48:04.805Z,2.00
2022-10-11T11:50:45.960Z,2.42
2022-10-11T11:53:19.099Z,3.95
2022-10-11T11:55:57.160Z,2.10
2022-10-11T11:58:38.139Z,2.40
2022-10-11T12:01:17.943Z,2.33
2022-10-11T12:03:51.059Z,2.50
2022-10-11T12:07:04.042Z,2.70
2022-10-11T12:09:33.244Z,2.33
2022-10-11T12:12:06.888Z,2.58
2022-10-11T12:14:41.962Z,2.40
2022-10-11T12:17:19.187Z,2.67
2022-10-11T12:20:09.512Z,2.15
2022-10-11T12:22:55.264Z,2.38
2022-10-11T12:26:18.945Z,2.80
2022-10-11T12:29:18.578Z,2.00
2022-10-11T12:31:51.938Z,1.85
2022-10-11T12:34:37.882Z,2.55
2022-10-11T12:37:37.837Z,1.95
2022-10-11T12:40:47.041Z,1.80
2022-10-11T12:43:55.649Z,2.17
2022-10-11T12:46:49.307Z,2.08
2022-10-11T12:49:29.645Z,1.40
2022-10-11T12:52:03.573Z,2.15
2022-10-11T12:55:06.087Z,2.10
2022-10-11T12:58:10.059Z,1.67
2022-10-11T13:00:46.675Z,2.03
2022-10-11T13:03:32.828Z,2.08
2022-10-11T13:06:03.533Z,2.25
2022-10-11T13:08:40.373Z,2.13
2022-10-11T13:11:20.354Z,2.50
2022-10-11T13:13:58.250Z,2.80
2022-10-11T13:16:30.590Z,2.08
2022-10-11T13:19:02.718Z,2.20
2022-10-11T13:21:36.258Z,1.85
2022-10-11T13:24:14.583Z,3.17
2022-10-11T13:26:45.822Z,3.03
2022-10-11T13:29:23.947Z,2.40
2022-10-11T13:31:53.859Z,1.63
2022-10-11T13:34:24.545Z,1.98
2022-10-11T13:36:58.543Z,2.17
2022-10-11T13:39:31.870Z,2.42
2022-10-11T13:42:03.718Z,2.70
2022-10-11T13:44:38.671Z,2.67
2022-10-11T13:47:09.046Z,4.82
2022-10-11T13:49:41.303Z,3.13
2022-10-11T13:52:23.818Z,2.47
2022-10-11T13:55:01.263Z,2.50
2022-10-11T13:57:38.673Z,3.67
2022-10-11T14:00:30.677Z,2.53
2022-10-11T14:03:05.198Z,2.90
2022-10-11T14:05:38.540Z,3.88
2022-10-11T14:08:10.707Z,2.92
2022-10-11T14:10:40.553Z,31.02
2022-10-11T14:13:25.757Z,19.90
2022-10-11T14:16:10.250Z,4.03
2022-10-11T14:18:45.524Z,2.72
2022-10-11T14:21:37.918Z,1.80
2022-10-11T14:24:10.689Z,2.20
2022-10-11T14:26:42.479Z,2.70
2022-10-11T14:29:17.503Z,6.70
2022-10-11T14:31:50.119Z,1.50
2022-10-11T14:34:22.995Z,1.58
2022-10-11T14:36:54.092Z,2.03
2022-10-11T14:39:26.174Z,1.58
2022-10-11T14:41:56.656Z,1.67
2022-10-11T14:44:26.529Z,1.83
2022-10-11T14:46:59.101Z,2.17
2022-10-11T14:49:32.344Z,2.45
2022-10-11T14:52:02.332Z,4.38
2022-10-11T14:54:33.281Z,19.02
2022-10-11T14:57:08.495Z,4.93
2022-10-11T14:59:39.760Z,2.13
2022-10-11T15:02:14.408Z,2.05
2022-10-11T15:04:44.262Z,1.80
2022-10-11T15:07:15.543Z,1.88
2022-10-11T15:09:45.314Z,1.90
2022-10-11T15:12:15.117Z,1.90
2022-10-11T15:14:44.922Z,2.72
2022-10-11T15:17:17.480Z,2.65
2022-10-11T15:19:47.599Z,2.45
2022-10-11T15:22:17.487Z,2.10
2022-10-11T15:24:51.520Z,2.17
2022-10-11T15:27:25.457Z,2.05
2022-10-11T15:29:55.224Z,2.10
2022-10-11T15:32:27.783Z,2.10
2022-10-11T15:34:57.515Z,2.33
2022-10-11T15:37:27.479Z,2.33
2022-10-11T15:39:57.280Z,2.00
2022-10-11T15:42:27.102Z,2.20
2022-10-11T15:44:56.938Z,2.42
2022-10-11T15:47:29.361Z,22.58
2022-10-11T15:49:59.225Z,68.25
2022-10-11T15:52:29.169Z,13.88
2022-10-11T15:54:58.977Z,3.30
2022-10-11T15:57:28.795Z,2.90
2022-10-11T15:59:59.229Z,2.85
2022-10-11T16:02:31.928Z,2.75
2022-10-11T16:05:01.918Z,3.35
2022-10-11T16:07:31.981Z,2.70
2022-10-11T16:10:01.748Z,3.65
2022-10-11T16:12:31.514Z,2.88
2022-10-11T16:15:01.444Z,2.58
2022-10-11T16:17:36.865Z,3.05
2022-10-11T16:20:08.132Z,3.10
2022-10-11T16:22:38.667Z,3.75
2022-10-11T16:25:08.609Z,5.72
2022-10-11T16:27:38.520Z,5.63
2022-10-11T16:30:13.958Z,5.55
2022-10-11T16:32:46.900Z,4.38
2022-10-11T16:35:19.122Z,5.15
2022-10-11T16:37:52.014Z,4.90
2022-10-11T16:40:23.638Z,4.63
2022-10-11T16:42:53.631Z,4.47
2022-10-11T16:45:23.520Z,4.35
2022-10-11T16:47:55.995Z,4.43
2022-10-11T16:50:26.306Z,3.85
2022-10-11T16:53:03.705Z,6.20
2022-10-11T16:55:33.471Z,5.03
2022-10-11T16:58:03.311Z,5.07
2022-10-11T17:00:33.134Z,34.60
2022-10-11T17:03:05.543Z,32.20
2022-10-11T17:05:35.371Z,7.45
2022-10-11T17:08:05.393Z,5.57
2022-10-11T17:10:44.508Z,4.53
2022-10-11T17:13:14.349Z,4.40
2022-10-11T17:15:44.231Z,3.77
2022-10-11T17:18:16.668Z,5.03
2022-10-11T17:20:46.903Z,4.93
2022-10-11T17:23:16.762Z,4.93
2022-10-11T17:25:47.921Z,4.63
2022-10-11T17:28:17.827Z,4.77
2022-10-11T17:30:55.926Z,4.00
2022-10-11T17:33:31.591Z,4.83
2022-10-11T17:36:04.877Z,5.13
2022-10-11T17:38:35.044Z,4.90
2022-10-11T17:41:09.476Z,5.13
2022-10-11T17:43:39.434Z,5.37
2022-10-11T17:46:10.125Z,4.53
2022-10-11T17:48:44.686Z,5.10
2022-10-11T17:51:22.812Z,5.23
2022-10-11T17:53:53.584Z,5.23
2022-10-11T17:56:31.318Z,5.63
2022-10-11T17:59:03.603Z,5.47
2022-10-11T18:01:33.522Z,5.00
2022-10-11T18:04:10.394Z,5.70
2022-10-11T18:06:43.584Z,4.70
2022-10-11T18:09:15.266Z,7.57
2022-10-11T18:11:45.738Z,7.13
2022-10-11T18:14:15.964Z,7.17
2022-10-11T18:17:01.336Z,7.40
2022-10-11T18:19:33.742Z,9.73
2022-10-11T18:22:07.014Z,9.17
2022-10-11T18:24:37.515Z,9.93
2022-10-11T18:27:07.483Z,10.47
2022-10-11T18:29:37.363Z,11.10
2022-10-11T18:32:07.249Z,10.03
2022-10-11T18:34:39.752Z,10.73
2022-10-11T18:37:09.490Z,10.37
2022-10-11T18:39:39.287Z,10.57
2022-10-11T18:42:09.797Z,10.23
2022-10-11T18:44:39.609Z,11.23
2022-10-11T18:47:09.431Z,11.23
2022-10-11T18:49:41.920Z,10.53
2022-10-11T18:52:12.508Z,10.93
2022-10-11T18:54:42.570Z,10.67
2022-10-11T18:57:12.537Z,10.93
2022-10-11T18:59:42.443Z,10.47
2022-10-11T19:02:13.789Z,11.00
2022-10-11T19:04:52.537Z,10.83
2022-10-11T19:07:26.783Z,12.20
2022-10-11T19:09:56.719Z,11.00
2022-10-11T19:12:26.587Z,10.77
2022-10-11T19:14:57.344Z,10.77
2022-10-11T19:17:27.376Z,10.83
2022-10-11T19:19:59.817Z,10.27
2022-10-11T19:22:29.615Z,10.30
2022-10-11T19:24:59.409Z,107.67
2022-10-11T19:27:30.630Z,25.40
2022-10-11T19:30:00.530Z,12.13
2022-10-11T19:32:30.406Z,11.37
2022-10-11T19:35:02.787Z,12.37
2022-10-11T19:37:33.033Z,12.07
2022-10-11T19:40:05.933Z,14.30
2022-10-11T19:42:35.899Z,16.07
2022-10-11T19:45:08.306Z,16.43
2022-10-11T19:47:40.188Z,18.27
2022-10-11T19:50:13.053Z,20.13
2022-10-11T19:52:48.411Z,21.33
2022-10-11T19:55:18.363Z,20.80
2022-10-11T19:57:48.116Z,21.40
2022-10-11T20:00:19.051Z,21.27
2022-10-11T20:02:48.915Z,21.90
2022-10-11T20:05:21.577Z,22.33
2022-10-11T20:07:51.687Z,22.50
2022-10-11T20:10:25.188Z,21.67
2022-10-11T20:12:54.976Z,21.80
2022-10-11T20:15:24.712Z,22.40
2022-10-11T20:17:54.499Z,22.23
2022-10-11T20:20:27.202Z,22.23
2022-10-11T20:22:57.506Z,24.07
2022-10-11T20:25:27.318Z,23.43
2022-10-11T20:27:57.211Z,23.97
2022-10-11T20:30:27.169Z,23.93
2022-10-11T20:33:07.231Z,23.27
2022-10-11T20:35:39.955Z,23.93
2022-10-11T20:38:09.722Z,22.63
2022-10-11T20:40:42.866Z,22.33
2022-10-11T20:43:14.149Z,22.40
2022-10-11T20:45:44.506Z,23.30
2022-10-11T20:48:14.539Z,24.70
2022-10-11T20:50:49.468Z,25.67
2022-10-11T20:53:19.219Z,25.20
2022-10-11T20:55:49.181Z,23.90
2022-10-11T20:58:19.711Z,24.80
2022-10-11T21:00:50.199Z,23.37
2022-10-11T21:03:20.603Z,24.00
2022-10-11T21:06:00.730Z,24.33
2022-10-11T21:08:30.469Z,24.40
2022-10-11T21:11:00.321Z,24.37
2022-10-11T21:13:34.020Z,25.33
2022-10-11T21:16:08.063Z,24.03
2022-10-11T21:18:37.795Z,25.17
2022-10-11T21:21:12.343Z,24.77
2022-10-11T21:23:42.498Z,25.17
2022-10-11T21:26:14.833Z,24.20
2022-10-11T21:28:44.762Z,24.57
2022-10-11T21:31:18.259Z,24.53
2022-10-11T21:33:48.547Z,24.13
2022-10-11T21:36:25.046Z,24.67
2022-10-11T21:38:56.031Z,24.33
2022-10-11T21:41:29.137Z,23.20
2022-10-11T21:43:59.246Z,23.07
2022-10-11T21:49:21.943Z,21.93
2022-10-11T21:51:54.587Z,22.10
2022-10-11T21:54:24.396Z,22.03
2022-10-11T21:56:54.415Z,21.63
2022-10-11T21:59:24.283Z,22.50
2022-10-11T22:01:58.075Z,21.80
2022-10-11T22:04:30.606Z,22.67
2022-10-11T22:07:03.130Z,22.50
2022-10-11T22:09:35.034Z,23.63
2022-10-11T22:12:05.016Z,23.03
2022-10-11T22:14:37.600Z,24.27
2022-10-11T22:17:07.355Z,23.03
2022-10-11T22:19:37.215Z,23.53
2022-10-11T22:22:09.571Z,24.10
2022-10-11T22:24:39.364Z,23.70
2022-10-11T22:27:09.212Z,24.73
2022-10-11T22:29:39.158Z,24.33
2022-10-11T22:32:11.597Z,24.13
2022-10-11T22:34:41.468Z,24.03
2022-10-11T22:37:13.986Z,25.27
2022-10-11T22:39:43.802Z,25.13
2022-10-11T22:42:13.687Z,24.53
2022-10-11T22:44:43.461Z,23.70
2022-10-11T22:47:13.237Z,24.47
2022-10-11T22:49:43.052Z,25.47
2022-10-11T22:52:18.122Z,25.03
2022-10-11T22:54:48.142Z,24.23
2022-10-11T22:57:18.277Z,23.97
2022-10-11T22:59:48.376Z,24.77
2022-10-11T23:02:18.282Z,23.50
2022-10-11T23:04:48.276Z,23.47
2022-10-11T23:07:22.884Z,23.43
2022-10-11T23:09:52.724Z,24.40
2022-10-11T23:12:22.606Z,24.50
2022-10-11T23:14:52.405Z,24.27
2022-10-11T23:17:22.415Z,23.33
2022-10-11T23:19:52.745Z,22.33
2022-10-11T23:22:25.211Z,22.50
2022-10-11T23:24:55.687Z,21.93
2022-10-11T23:27:25.510Z,22.77
2022-10-11T23:29:56.022Z,23.47
2022-10-11T23:32:26.048Z,23.00
2022-10-11T23:34:56.065Z,23.73
2022-10-11T23:37:30.941Z,22.53
2022-10-11T23:40:01.537Z,22.73
2022-10-11T23:42:31.392Z,21.33
2022-10-11T23:45:01.407Z,22.43
2022-10-11T23:47:31.298Z,22.67
2022-10-11T23:50:01.095Z,22.00
2022-10-11T23:52:33.487Z,21.43
2022-10-11T23:55:05.187Z,21.57
2022-10-11T23:57:35.257Z,21.40
